createdAt,value
2023-04-14T00:01:02.998Z,84.21
2023-04-14T00:11:06.526Z,82.49
2023-04-14T00:21:11.361Z,85.90
2023-04-14T00:31:14.615Z,86.41
2023-04-14T00:41:19.250Z,85.52
2023-04-14T00:51:23.406Z,85.31
2023-04-14T01:01:29.464Z,86.11
2023-04-14T01:11:42.827Z,86.22
2023-04-14T01:21:51.439Z,84.03
2023-04-14T01:32:03.447Z,82.22
2023-04-14T01:42:10.608Z,83.79
2023-04-14T01:52:17.175Z,84.98
2023-04-14T02:02:22.617Z,82.36
2023-04-14T02:12:29.350Z,82.86
2023-04-14T02:22:32.468Z,81.42
2023-04-14T02:32:41.535Z,82.09
2023-04-14T02:42:49.076Z,83.72
2023-04-14T02:52:55.411Z,80.89
2023-04-14T03:03:05.263Z,83.01
2023-04-14T03:13:12.748Z,83.99
2023-04-14T03:23:21.416Z,85.35
2023-04-14T03:33:34.106Z,85.29
2023-04-14T03:43:38.677Z,83.14
2023-04-14T03:53:48.911Z,83.92
2023-04-14T04:03:55.715Z,83.96
2023-04-14T04:14:04.506Z,84.81
2023-04-14T04:24:13.487Z,83.85
2023-04-14T04:44:41.493Z,85.26
2023-04-14T04:54:52.260Z,85.81
2023-04-14T05:04:59.326Z,86.48
2023-04-14T05:15:04.749Z,86.35
2023-04-14T05:25:08.594Z,86.43
2023-04-14T05:35:12.685Z,85.25
2023-04-14T05:45:15.772Z,87.60
2023-04-14T05:55:21.443Z,85.86
2023-04-14T06:05:25.572Z,89.10
2023-04-14T06:15:31.028Z,87.65
2023-04-14T06:25:35.235Z,90.67
2023-04-14T06:35:39.972Z,89.17
2023-04-14T06:45:45.170Z,88.70
2023-04-14T06:55:59.136Z,90.02
2023-04-14T07:06:07.064Z,88.57
2023-04-14T07:16:11.935Z,86.95
2023-04-14T07:26:15.754Z,83.36
2023-04-14T07:36:20.363Z,85.14
2023-04-14T07:46:23.617Z,81.12
2023-04-14T07:56:28.396Z,73.24
2023-04-14T08:06:31.479Z,69.47
2023-04-14T08:16:37.461Z,66.27
2023-04-14T08:26:41.280Z,68.43
2023-04-14T08:36:46.694Z,67.68
2023-04-14T08:46:52.765Z,66.51
2023-04-14T08:56:58.578Z,64.79
2023-04-14T09:07:03.048Z,59.79
2023-04-14T09:17:07.149Z,59.81
2023-04-14T09:27:10.644Z,56.31
2023-04-14T09:37:15.183Z,55.40
2023-04-14T09:47:21.691Z,54.08
2023-04-14T09:57:30.035Z,55.75
2023-04-14T10:07:33.689Z,48.64
2023-04-14T10:17:39.902Z,47.42
2023-04-14T10:27:43.648Z,45.05
2023-04-14T10:37:53.829Z,45.22
2023-04-14T10:47:58.385Z,45.48
2023-04-14T10:58:06.848Z,42.73
2023-04-14T11:08:14.681Z,43.28
2023-04-14T11:18:22.499Z,43.63
2023-04-14T11:28:33.161Z,41.82
2023-04-14T11:38:40.313Z,41.39
2023-04-14T11:48:43.186Z,40.42
2023-04-14T11:58:47.555Z,42.35
2023-04-14T12:08:53.218Z,41.50
2023-04-14T12:18:57.802Z,42.42
2023-04-14T12:29:01.443Z,39.91
2023-04-14T12:39:09.809Z,39.07
2023-04-14T12:49:27.478Z,36.47
2023-04-14T12:59:31.671Z,35.63
2023-04-14T13:09:34.813Z,34.98
2023-04-14T13:19:39.038Z,36.97
2023-04-14T13:29:42.384Z,37.90
2023-04-14T13:39:46.904Z,37.78
2023-04-14T13:49:50.074Z,37.14
2023-04-14T13:59:54.611Z,36.76
2023-04-14T14:09:57.619Z,37.12
2023-04-14T14:20:01.861Z,36.96
2023-04-14T14:30:04.961Z,35.85
2023-04-14T14:40:10.907Z,36.14
2023-04-14T14:50:13.806Z,35.23
2023-04-14T15:00:20.324Z,35.56
2023-04-14T15:10:23.598Z,35.25
2023-04-14T15:20:28.410Z,33.73
2023-04-14T15:30:31.543Z,33.57
2023-04-14T15:40:36.368Z,33.89
2023-04-14T15:50:44.957Z,34.12
2023-04-14T16:00:49.896Z,32.91
2023-04-14T16:10:53.696Z,33.97
2023-04-14T16:20:58.581Z,33.61
2023-04-14T16:31:02.975Z,33.68
2023-04-14T16:41:07.713Z,33.13
2023-04-14T16:51:11.872Z,33.96
2023-04-14T17:01:16.627Z,33.14
2023-04-14T17:11:20.487Z,32.04
2023-04-14T17:21:25.688Z,32.24
2023-04-14T17:31:29.190Z,30.96
2023-04-14T17:41:34.412Z,32.33
2023-04-14T17:51:38.456Z,32.64
2023-04-14T18:01:42.876Z,33.53
2023-04-14T18:11:46.223Z,34.93
2023-04-14T18:21:50.442Z,35.71
2023-04-14T18:31:53.684Z,37.16
2023-04-14T18:41:58.822Z,38.06
2023-04-14T18:52:02.459Z,39.24
2023-04-14T19:02:10.514Z,41.31
2023-04-14T19:12:25.324Z,40.54
2023-04-14T19:22:32.356Z,43.75
2023-04-14T19:32:35.936Z,45.97
2023-04-14T19:42:40.202Z,47.10
2023-04-14T19:52:43.938Z,47.71
2023-04-14T20:02:48.842Z,47.06
2023-04-14T20:12:52.782Z,46.89
2023-04-14T20:22:58.842Z,49.88
2023-04-14T20:33:04.580Z,51.38
2023-04-14T20:43:09.816Z,52.96
2023-04-14T20:53:13.570Z,50.85
2023-04-14T21:03:18.407Z,54.12
2023-04-14T21:15:31.160Z,55.93
2023-04-14T21:23:45.643Z,57.34
2023-04-14T21:33:48.461Z,54.66
2023-04-14T21:43:52.954Z,55.09
2023-04-14T21:53:55.877Z,54.07
2023-04-14T22:04:00.591Z,55.33
2023-04-14T22:14:05.536Z,57.00
2023-04-14T22:24:10.285Z,60.14
2023-04-14T22:34:14.112Z,57.31
2023-04-14T22:44:18.695Z,60.73
2023-04-14T22:54:21.642Z,60.38
2023-04-14T23:14:30.031Z,65.17
2023-04-14T23:24:34.077Z,62.31
2023-04-14T23:34:37.609Z,63.06
2023-04-14T23:44:42.183Z,63.09
2023-04-14T23:54:45.240Z,66.39
